Latest Weather Observations for Richmond

IDN60801

Issued at 8:03 pm EST Thursday 21 September 2017 (issued every 30 minutes, with the page automatically refreshed every 10 minutes)

About weather observations | Map of weather stations | Latest weather observations for NSW | Other Formats
Station Details ID: 067105 Name: RICHMOND RAAF Lat: -33.60 Lon: 150.78 Height: 19.0 m
Data from the previous 72 hours. | See also: Recent months at Richmond
Date/Time
EST
Temp
°C
App
Temp
°C
Dew
Point
°C
Rel
Hum
%
Delta-T
°C
Wind Press
QNH
hPa
Press
MSL
hPa
Rain since
9am
mm
Dir  Spd
km/h
Gust
km/h
Spd
kts
Gust
kts
21/08:00pm 15.0 14.1 9.1 68 3.0 SW 4 7 2 4 1013.5 1013.5 0.0
21/07:30pm 17.4 17.6 10.5 64 3.7 CALM 0 0 0 0 1013.0 1013.0 0.0
21/07:00pm 17.6 15.7 9.0 57 4.5 SSE 9 13 5 7 1012.7 1012.7 0.0
21/06:30pm 20.1 18.1 10.2 53 5.3 S 11 11 6 6 1012.3 1012.3 0.0
21/06:00pm 22.3 20.6 9.8 45 6.8 E 9 13 5 7 1011.7 1011.7 0.0
21/05:30pm 24.3 21.4 9.5 39 8.1 E 15 22 8 12 1011.1 1011.1 0.0
21/05:00pm 26.3 23.2 7.4 30 10.0 E 13 19 7 10 1010.9 1010.9 0.0
21/04:30pm 28.1 24.1 0.8 17 13.0 E 11 13 6 7 1010.7 1010.7 0.0
21/04:00pm 28.5 24.6 1.1 17 13.2 ENE 11 15 6 8 1010.7 1010.7 0.0
21/03:30pm 28.5 24.2 1.1 17 13.2 E 13 19 7 10 1010.8 1010.8 0.0
21/03:00pm 27.9 24.2 2.2 19 12.6 ESE 11 15 6 8 1011.0 1011.0 0.0
21/02:30pm 27.1 24.6 4.8 24 11.4 E 7 15 4 8 1011.5 1011.5 0.0
21/02:00pm 25.9 23.9 7.0 30 9.9 NE 7 13 4 7 1011.9 1011.9 0.0
21/01:30pm 24.9 23.4 8.4 35 8.8 NE 6 11 3 6 1012.4 1012.4 0.0
21/01:00pm 23.5 21.7 8.0 37 8.2 E 7 11 4 6 1013.1 1013.1 0.0
21/12:30pm 22.2 21.0 6.4 36 8.0 S 2 7 1 4 1013.7 1013.7 0.0
21/12:00pm 20.9 19.3 7.9 43 6.7 E 6 9 3 5 1014.4 1014.4 0.0
21/11:30am 19.6 18.2 7.4 45 6.2 ENE 4 11 2 6 1015.0 1015.0 0.0
21/11:00am 19.1 18.7 9.6 54 5.0 E 2 11 1 6 1015.6 1015.6 0.0
21/10:30am 17.1 15.8 9.3 60 4.1 SE 6 9 3 5 1016.1 1016.1 0.0
21/10:00am 16.0 15.0 10.3 69 3.0 NNW 6 9 3 5 1016.5 1016.5 0.0
21/09:30am 14.3 12.9 8.7 69 2.8 NE 6 11 3 6 1016.7 1016.7 0.0
21/09:00am 13.3 12.2 8.6 73 2.3 E 4 7 2 4 1017.0 1017.0 0.0
21/08:30am 12.0 11.3 8.7 80 1.6 SE 2 9 1 5 1017.3 1017.3 0.0
21/08:00am 10.1 9.8 8.5 90 0.8 CALM 0 4 0 2 1017.5 1017.5 0.0
21/07:30am 8.5 6.9 8.2 98 0.1 NE 6 7 3 4 1017.7 1017.7 0.0
21/07:00am 7.1 6.4 6.8 98 0.1 CALM 0 0 0 0 1017.7 1017.7 0.0
21/06:43am 6.1 5.1 5.8 98 0.1 CALM 0 0 0 0 1017.5 1017.5 0.0
21/06:30am 5.4 4.3 5.1 98 0.1 CALM 0 0 0 0 1017.5 1017.5 0.0
21/06:16am 4.9 3.7 4.6 98 0.1 CALM 0 0 0 0 1017.5 1017.5 0.0
21/06:02am 4.5 3.2 4.2 98 0.1 CALM 0 0 0 0 1017.4 1017.4 0.0
21/06:01am 4.6 3.3 4.3 98 0.1 CALM 0 0 0 0 1017.4 1017.4 0.0
21/06:00am 4.6 3.3 4.3 98 0.1 CALM 0 0 0 0 1017.4 1017.4 0.0
21/05:30am 4.9 3.7 4.6 98 0.1 CALM 0 0 0 0 1017.3 1017.3 0.0
21/05:11am 4.2 2.9 3.9 98 0.1 CALM 0 0 0 0 1017.2 1017.2 0.0
21/05:00am 4.4 3.1 4.1 98 0.1 CALM 0 0 0 0 1017.2 1017.2 0.0
21/04:35am 4.1 2.7 3.8 98 0.1 CALM 0 2 0 1 1017.2 1017.2 0.0
21/04:30am 4.3 2.6 4.0 98 0.1 NW 2 6 1 3 1017.2 1017.2 0.0
21/04:00am 6.5 5.6 6.2 98 0.1 CALM 0 0 0 0 1017.0 1017.0 0.0
21/03:40am 6.0 5.0 5.7 98 0.1 CALM 0 0 0 0 1017.0 1017.0 0.0
21/03:30am 6.2 5.3 5.9 98 0.1 CALM 0 0 0 0 1016.9 1016.9 0.0
21/03:00am 7.1 6.4 6.8 98 0.1 CALM 0 0 0 0 1016.9 1016.9 0.0
21/02:56am 7.1 6.4 6.8 98 0.1 CALM 0 0 0 0 1016.9 1016.9 0.0
21/02:35am 7.4 6.7 7.1 98 0.1 CALM 0 0 0 0 1017.0 1017.0 0.0
21/02:30am 7.5 6.9 7.2 98 0.1 CALM 0 0 0 0 1017.1 1017.1 0.0
21/02:14am 7.3 6.6 7.0 98 0.1 CALM 0 0 0 0 1017.3 1017.3 0.0
21/02:00am 7.3 6.6 7.0 98 0.1 CALM 0 0 0 0 1017.4 1017.4 0.0
21/01:30am 6.7 5.9 6.4 98 0.1 CALM 0 0 0 0 1017.7 1017.7 0.0
21/01:08am 7.6 7.0 7.3 98 0.1 CALM 0 0 0 0 1018.0 1018.0 0.0
21/01:00am 7.4 6.7 7.1 98 0.1 CALM 0 0 0 0 1018.0 1018.0 0.0
21/12:44am 7.5 6.9 7.2 98 0.1 CALM 0 0 0 0 1018.0 1018.0 0.0
21/12:30am 8.0 7.5 7.7 98 0.1 CALM 0 0 0 0 1018.1 1018.1 0.0
21/12:00am 8.4 8.0 8.1 98 0.1 CALM 0 0 0 0 1018.3 1018.3 0.0
 
Date/Time
EST
Temp
°C
App
Temp
°C
Dew
Point
°C
Rel
Hum
%
Delta-T
°C
Wind Press
QNH
hPa
Press
MSL
hPa
Rain since
9am
mm
Dir  Spd
km/h
Gust
km/h
Spd
kts
Gust
kts
20/11:30pm 8.3 7.8 7.9 97 0.2 CALM 0 0 0 0 1018.3 1018.3 0.0
20/11:00pm 8.7 8.2 7.9 95 0.4 CALM 0 0 0 0 1018.7 1018.7 0.0
20/10:30pm 9.8 9.7 9.3 97 0.2 CALM 0 0 0 0 1018.9 1018.9 0.0
20/10:00pm 9.7 7.9 8.0 89 0.8 SSW 7 11 4 6 1019.0 1019.0 0.0
20/09:30pm 11.5 10.4 9.8 89 0.9 WSW 6 7 3 4 1019.0 1019.0 0.0
20/09:00pm 12.9 11.3 10.1 83 1.4 ENE 9 13 5 7 1018.8 1018.8 0.0
20/08:30pm 12.7 10.6 9.7 82 1.5 ENE 11 13 6 7 1018.7 1018.7 0.0
20/08:00pm 13.7 12.1 10.1 79 1.9 ENE 9 11 5 6 1018.6 1018.6 0.0
20/07:30pm 14.0 12.7 9.8 76 2.2 SE 7 9 4 5 1018.3 1018.3 0.0
20/07:00pm 14.3 12.6 9.9 75 2.3 ENE 9 11 5 6 1017.6 1017.6 0.0
20/06:30pm 15.0 12.9 9.8 71 2.7 E 11 15 6 8 1017.4 1017.4 0.0
20/06:00pm 16.2 13.7 9.6 65 3.4 E 13 19 7 10 1017.0 1017.0 0.0
20/05:30pm 17.8 14.1 9.4 58 4.4 ESE 19 28 10 15 1016.6 1016.6 0.0
20/05:00pm 20.7 17.0 2.5 30 8.5 SE 11 15 6 8 1016.1 1016.1 0.0
20/04:30pm 21.2 17.1 2.5 29 8.8 E 13 17 7 9 1015.8 1015.8 0.0
20/04:00pm 21.4 18.2 3.1 30 8.7 E 9 15 5 8 1015.8 1015.8 0.0
20/03:30pm 21.3 17.3 3.0 30 8.7 E 13 20 7 11 1015.8 1015.8 0.0
20/03:00pm 21.2 18.2 3.9 32 8.3 ENE 9 19 5 10 1016.0 1016.0 0.0
20/02:30pm 20.9 17.0 3.6 32 8.3 E 13 19 7 10 1016.3 1016.3 0.0
20/02:00pm 20.7 17.1 5.1 36 7.7 E 13 20 7 11 1016.7 1016.7 0.0
20/01:30pm 20.5 16.6 5.3 37 7.5 ENE 15 20 8 11 1017.4 1017.4 0.0
20/01:00pm 19.9 16.0 5.5 39 7.1 E 15 22 8 12 1018.1 1018.1 0.0
20/12:30pm 19.8 16.9 6.5 42 6.7 E 11 17 6 9 1018.9 1018.9 0.0
20/12:00pm 19.3 16.9 7.1 45 6.2 E 9 15 5 8 1019.6 1019.6 0.0
20/11:30am 17.6 15.2 6.8 49 5.4 N 9 19 5 10 1020.3 1020.3 0.0
20/11:00am 16.9 13.9 7.5 54 4.7 NE 13 20 7 11 1020.8 1020.8 0.0
20/10:30am 16.1 14.1 6.3 52 4.8 SE 6 11 3 6 1021.1 1021.1 0.0
20/10:00am 15.2 12.6 4.0 47 5.1 ESE 7 11 4 6 1021.6 1021.6 0.0
20/09:30am 14.2 12.5 4.2 51 4.6 NNE 2 7 1 4 1021.8 1021.8 0.0
20/09:00am 12.9 10.2 3.6 53 4.2 E 7 11 4 6 1021.7 1021.7 0.0
20/08:30am 10.9 9.5 3.7 61 3.2 CALM 0 0 0 0 1021.7 1021.7 0.0
20/08:00am 9.5 8.1 3.7 67 2.5 CALM 0 6 0 3 1021.8 1021.8 0.0
20/07:30am 7.5 6.3 4.5 81 1.3 CALM 0 9 0 5 1021.9 1021.9 0.0
20/07:00am 5.7 4.6 5.1 96 0.3 CALM 0 0 0 0 1021.9 1021.9 0.0
20/06:30am 3.3 1.7 2.3 93 0.4 CALM 0 0 0 0 1021.7 1021.7 0.0
20/06:00am 3.7 2.2 2.8 94 0.4 CALM 0 0 0 0 1021.5 1021.5 0.0
20/05:30am 2.7 1.0 2.1 96 0.2 CALM 0 0 0 0 1021.1 1021.1 0.0
20/05:00am 3.1 1.4 2.1 93 0.4 CALM 0 0 0 0 1021.0 1021.0 0.0
20/04:30am 3.6 2.0 2.7 94 0.4 CALM 0 0 0 0 1020.9 1020.9 0.0
20/04:00am 3.6 2.0 2.3 91 0.5 CALM 0 0 0 0 1020.7 1020.7 0.0
20/03:30am 4.4 2.9 3.2 92 0.5 CALM 0 0 0 0 1020.7 1020.7 0.0
20/03:00am 4.2 2.6 2.2 87 0.8 CALM 0 0 0 0 1020.8 1020.8 0.0
20/02:30am 4.7 2.8 3.0 89 0.7 NE 2 7 1 4 1020.6 1020.6 0.0
20/02:00am 5.0 3.3 2.0 81 1.2 CALM 0 0 0 0 1020.6 1020.6 0.0
20/01:30am 4.8 3.1 1.8 81 1.2 CALM 0 0 0 0 1020.6 1020.6 0.0
20/01:00am 5.4 3.8 2.4 81 1.2 CALM 0 0 0 0 1020.5 1020.5 0.0
20/12:30am 6.1 4.6 3.1 81 1.2 CALM 0 0 0 0 1020.6 1020.6 0.0
20/12:00am 7.0 5.4 2.3 72 1.9 CALM 0 0 0 0 1020.6 1020.6 0.0
 
Date/Time
EST
Temp
°C
App
Temp
°C
Dew
Point
°C
Rel
Hum
%
Delta-T
°C
Wind Press
QNH
hPa
Press
MSL
hPa
Rain since
9am
mm
Dir  Spd
km/h
Gust
km/h
Spd
kts
Gust
kts
19/11:30pm 8.7 7.0 2.1 63 2.8 CALM 0 0 0 0 1020.5 1020.5 0.0
19/11:00pm 9.3 6.5 3.1 65 2.7 NNE 7 9 4 5 1020.3 1020.3 0.0
19/10:30pm 9.3 7.6 1.9 60 3.1 CALM 0 4 0 2 1020.2 1020.2 0.0
19/10:00pm 10.1 7.2 1.2 54 3.7 SW 6 7 3 4 1020.2 1020.2 0.0
19/09:30pm 11.1 8.0 1.4 51 4.1 WSW 7 9 4 5 1019.9 1019.9 0.0
19/09:00pm 12.9 9.4 1.3 45 4.9 S 9 13 5 7 1019.6 1019.6 0.0
19/08:30pm 13.9 10.0 1.2 42 5.4 SW 11 13 6 7 1019.2 1019.2 0.0
19/08:00pm 14.2 10.2 0.8 40 5.7 SW 11 13 6 7 1018.8 1018.8 0.0
19/07:30pm 15.3 11.0 0.7 37 6.3 SW 13 24 7 13 1018.3 1018.3 0.0
19/07:00pm 15.7 10.6 0.7 36 6.5 WSW 17 20 9 11 1017.7 1017.7 0.0
19/06:30pm 16.0 11.6 0.2 34 6.8 WSW 13 17 7 9 1017.0 1017.0 0.0
19/06:00pm 17.5 13.0 -0.2 30 7.6 W 13 19 7 10 1016.5 1016.5 0.0
19/05:30pm 19.2 12.9 -1.3 25 8.8 W 22 32 12 17 1015.7 1015.7 0.0
19/05:00pm 20.7 13.0 -3.0 20 9.9 W 28 35 15 19 1014.9 1014.9 0.0
19/04:30pm 21.6 13.3 -5.3 16 10.9 WNW 30 41 16 22 1014.4 1014.4 0.0
19/04:00pm 22.3 13.4 -5.6 15 11.3 W 33 46 18 25 1013.9 1013.9 0.0
19/03:30pm 22.8 15.9 -2.7 18 10.9 W 24 35 13 19 1013.8 1013.8 0.0
19/03:00pm 23.3 15.3 -2.3 18 11.1 W 30 44 16 24 1013.7 1013.7 0.0
19/02:30pm 23.3 15.6 -3.1 17 11.3 WSW 28 39 15 21 1013.9 1013.9 0.0
19/02:00pm 24.0 16.6 -3.3 16 11.7 W 26 74 14 40 1014.0 1014.0 0.0
19/01:59pm 23.9 16.4 -4.3 15 11.9 W 26 74 14 40 1013.6 1013.6 0.0
19/01:30pm 23.5 16.2 -6.5 13 12.0 W 24 44 13 24 1013.9 1013.9 0.0
19/01:00pm 23.7 15.4 -5.3 14 11.9 WSW 30 41 16 22 1014.2 1014.2 0.0
19/12:30pm 23.7 14.8 -7.4 12 12.3 W 32 52 17 28 1014.1 1014.1 0.0
19/12:26pm 23.8 15.8 -6.2 13 12.2 W 28 48 15 26 1014.1 1014.1 0.0
19/12:00pm 23.3 16.5 -1.6 19 11.0 W 24 33 13 18 1014.4 1014.4 0.0
19/11:30am 23.2 16.6 -0.3 21 10.6 WNW 24 33 13 18 1014.5 1014.5 0.0
19/11:00am 23.1 16.1 -0.4 21 10.6 W 26 39 14 21 1014.5 1014.5 0.0
19/10:30am 22.6 16.7 1.6 25 9.8 WNW 22 35 12 19 1014.6 1014.6 0.0
19/10:00am 22.1 14.7 1.7 26 9.5 W 30 39 16 21 1014.8 1014.8 0.0
19/09:30am 21.7 14.7 3.9 31 8.6 W 30 44 16 24 1014.7 1014.7 0.0
19/09:00am 21.6 16.6 4.7 33 8.3 W 20 35 11 19 1014.7 1014.7 0.0
19/08:30am 20.4 16.9 5.6 38 7.3 W 13 20 7 11 1014.5 1014.5 0.0
19/08:00am 16.7 15.1 6.2 50 5.1 NNW 4 9 2 5 1014.7 1014.7 0.0
19/07:30am 14.4 12.3 5.7 56 4.1 SE 6 11 3 6 1014.5 1014.5 0.0
19/07:00am 11.2 6.5 5.3 67 2.7 SE 19 24 10 13 1014.2 1014.2 0.0
19/06:30am 9.8 7.2 6.0 77 1.8 WSW 9 13 5 7 1013.2 1013.2 0.0
19/06:00am 8.6 6.6 4.6 76 1.8 W 4 9 2 5 1012.7 1012.7 0.0
19/05:30am 8.2 6.8 3.5 72 2.0 CALM 0 0 0 0 1012.4 1012.4 0.0
19/05:05am 8.5 5.7 5.3 80 1.4 ENE 9 41 5 22 1012.6 1012.6 0.0
19/05:00am 8.1 6.8 3.9 75 1.8 CALM 0 0 0 0 1011.3 1011.3 0.0
19/04:30am 9.2 6.7 4.8 74 2.0 NE 7 13 4 7 1011.1 1011.1 0.0
19/04:00am 8.1 5.4 3.6 73 1.9 ENE 7 11 4 6 1011.3 1011.3 0.0
19/03:30am 7.5 6.2 4.1 79 1.5 CALM 0 0 0 0 1011.5 1011.5 0.0
19/03:00am 8.2 6.9 4.0 75 1.8 CALM 0 0 0 0 1012.0 1012.0 0.0
19/02:30am 7.7 5.2 3.7 76 1.7 NE 6 7 3 4 1012.5 1012.5 0.0
19/02:00am 8.1 7.0 5.2 82 1.3 CALM 0 0 0 0 1013.2 1013.2 0.0
19/01:30am 8.7 7.4 4.1 73 2.0 CALM 0 0 0 0 1013.8 1013.8 0.0
19/01:00am 10.3 7.8 3.8 64 2.9 NE 6 7 3 4 1014.2 1014.2 0.0
19/12:30am 9.8 7.4 4.2 68 2.5 NNE 6 9 3 5 1014.7 1014.7 0.0
19/12:00am 10.4 9.2 4.8 68 2.5 CALM 0 0 0 0 1015.3 1015.3 0.0
 
Date/Time
EST
Temp
°C
App
Temp
°C
Dew
Point
°C
Rel
Hum
%
Delta-T
°C
Wind Press
QNH
hPa
Press
MSL
hPa
Rain since
9am
mm
Dir  Spd
km/h
Gust
km/h
Spd
kts
Gust
kts
18/11:30pm 9.9 8.7 4.7 70 2.3 CALM 0 4 0 2 1015.4 1015.4 0.0
18/11:00pm 10.2 7.2 3.9 65 2.8 NNE 9 13 5 7 1015.6 1015.6 0.0
18/10:30pm 10.9 9.1 3.2 59 3.4 NNE 2 9 1 5 1015.8 1015.8 0.0
18/10:00pm 11.8 10.4 3.6 57 3.6 CALM 0 0 0 0 1016.2 1016.2 0.0
18/09:30pm 12.6 11.2 3.3 53 4.1 CALM 0 0 0 0 1016.5 1016.5 0.0
18/09:00pm 14.0 12.4 2.3 45 5.1 CALM 0 0 0 0 1016.6 1016.6 0.0
18/08:30pm 15.0 13.2 1.2 39 6.0 CALM 0 0 0 0 1016.5 1016.5 0.0

Other Formats:

Comma delimited format used in spreadsheet applications
http://www.bom.gov.au/fwo/IDN60801/IDN60801.95753.axf

JavaScript Object Notation format (JSON) in row-major order
http://www.bom.gov.au/fwo/IDN60801/IDN60801.95753.json